createdAt,value
2018-04-25T17:50:42.764Z,1.20
2018-04-25T17:53:08.660Z,1.13
2018-04-25T17:55:34.536Z,1.20
2018-04-25T17:58:00.463Z,1.10
2018-04-25T18:00:26.340Z,1.17
2018-04-25T18:02:52.385Z,1.30
2018-04-25T18:05:18.327Z,1.50
2018-04-25T18:07:44.211Z,1.30
2018-04-25T18:10:10.582Z,1.27
2018-04-25T18:12:36.491Z,1.53
2018-04-25T18:15:02.544Z,1.30
2018-04-25T18:17:29.039Z,1.10
2018-04-25T18:19:55.502Z,1.30
2018-04-25T18:22:21.488Z,1.20
2018-04-25T18:24:47.408Z,1.40
2018-04-25T18:27:13.500Z,1.10
2018-04-25T18:29:39.379Z,1.00
2018-04-25T18:32:05.275Z,1.20
2018-04-25T18:34:31.253Z,1.20
2018-04-25T18:36:57.197Z,1.17
2018-04-25T18:39:23.299Z,1.30
2018-04-25T18:41:49.606Z,1.20
2018-04-25T18:44:15.514Z,1.20
2018-04-25T18:46:42.504Z,1.30
2018-04-25T18:49:08.454Z,1.30
2018-04-25T18:51:34.538Z,1.30
2018-04-25T18:54:01.522Z,1.00
2018-04-25T18:56:31.071Z,1.30
2018-04-25T18:58:57.146Z,1.23
2018-04-25T19:01:23.564Z,1.30
2018-04-25T19:03:50.708Z,1.40
2018-04-25T19:06:16.668Z,1.60
2018-04-25T19:08:42.567Z,1.20
2018-04-25T19:11:08.486Z,1.40
2018-04-25T19:13:34.464Z,1.20
2018-04-25T19:16:00.498Z,1.57
2018-04-25T19:18:26.432Z,1.40
2018-04-25T19:20:56.715Z,1.33
2018-04-25T19:23:22.764Z,1.30
2018-04-25T19:25:49.902Z,1.30
2018-04-25T19:28:15.928Z,4.40
2018-04-25T19:30:41.844Z,1.80
2018-04-25T19:33:09.659Z,1.80
2018-04-25T19:35:35.698Z,1.93
2018-04-25T19:38:01.601Z,2.23
2018-04-25T19:40:31.066Z,2.30
2018-04-25T19:42:58.855Z,2.27
2018-04-25T19:45:25.225Z,2.13
2018-04-25T19:47:51.295Z,2.47
2018-04-25T19:50:17.952Z,2.50
2018-04-25T19:52:45.459Z,2.50
2018-04-25T19:55:12.506Z,2.63
2018-04-25T19:57:39.296Z,2.63
2018-04-25T20:00:05.186Z,2.27
2018-04-25T20:02:34.117Z,2.20
2018-04-25T20:05:00.255Z,2.00
2018-04-25T20:07:26.143Z,1.90
2018-04-25T20:09:52.393Z,1.90
2018-04-25T20:12:18.291Z,2.33
2018-04-25T20:14:44.188Z,2.30
2018-04-25T20:17:10.284Z,2.20
2018-04-25T20:19:36.184Z,1.80
2018-04-25T20:22:02.079Z,2.10
2018-04-25T20:24:28.009Z,2.30
2018-04-25T20:26:53.892Z,2.30
2018-04-25T20:29:19.906Z,2.40
2018-04-25T20:31:45.844Z,2.00
2018-04-25T20:34:11.814Z,2.30
2018-04-25T20:36:37.693Z,1.83
2018-04-25T20:39:03.740Z,1.93
2018-04-25T20:41:29.783Z,2.20
2018-04-25T20:43:55.756Z,1.83
2018-04-25T20:46:21.669Z,2.30
2018-04-25T20:48:47.657Z,2.07
2018-04-25T20:51:13.640Z,1.97
2018-04-25T20:53:39.740Z,11.10
2018-04-25T20:56:05.620Z,5.30
2018-04-25T20:58:31.499Z,3.27
2018-04-25T21:00:57.581Z,3.03
2018-04-25T21:03:23.580Z,2.27
2018-04-25T21:05:49.589Z,2.20
2018-04-25T21:08:15.492Z,2.10
2018-04-25T21:10:41.380Z,1.90
2018-04-25T21:13:07.268Z,2.27
2018-04-25T21:15:33.604Z,2.37
2018-04-25T21:17:59.711Z,2.17
2018-04-25T21:20:25.571Z,2.10
2018-04-25T21:22:52.395Z,1.90
2018-04-25T21:25:18.268Z,2.43
2018-04-25T21:27:44.151Z,2.73
2018-04-25T21:30:10.219Z,2.50
2018-04-25T21:32:36.105Z,2.53
2018-04-25T21:35:02.001Z,2.23
2018-04-25T21:37:27.951Z,2.63
2018-04-25T21:39:53.836Z,2.27
2018-04-25T21:42:19.871Z,2.60
2018-04-25T21:44:45.799Z,2.57
2018-04-25T21:47:11.700Z,2.40
2018-04-25T21:49:37.593Z,2.80
2018-04-25T21:52:03.537Z,2.70
2018-04-25T21:54:29.601Z,2.63
2018-04-25T21:56:55.495Z,2.60
2018-04-25T21:59:21.422Z,3.10
2018-04-25T22:01:47.316Z,2.53
2018-04-25T22:04:13.199Z,2.60
2018-04-25T22:06:39.315Z,2.87
2018-04-25T22:09:05.211Z,2.60
2018-04-25T22:11:31.087Z,2.67
2018-04-25T22:13:57.321Z,2.67
2018-04-25T22:16:23.207Z,3.27
2018-04-25T22:18:50.057Z,3.13
2018-04-25T22:21:16.002Z,2.90
2018-04-25T22:23:41.885Z,2.97
2018-04-25T22:26:07.783Z,2.80
2018-04-25T22:28:33.700Z,3.10
2018-04-25T22:30:59.781Z,3.17
2018-04-25T22:33:25.670Z,3.07
2018-04-25T22:35:51.577Z,4.40
2018-04-25T22:38:17.489Z,3.47
2018-04-25T22:40:43.383Z,3.30
2018-04-25T22:43:09.476Z,3.70
2018-04-25T22:45:35.347Z,3.70
2018-04-25T22:48:01.224Z,3.50
2018-04-25T22:50:27.147Z,3.93
2018-04-25T22:52:53.031Z,3.30
2018-04-25T22:55:19.068Z,3.60
2018-04-25T22:57:44.989Z,3.10
2018-04-25T23:00:10.881Z,3.27
2018-04-25T23:02:36.811Z,2.87
2018-04-25T23:05:02.736Z,2.70
2018-04-25T23:07:28.744Z,3.17
2018-04-25T23:09:54.639Z,3.07
2018-04-25T23:12:20.572Z,3.00
2018-04-25T23:14:46.459Z,3.20
2018-04-25T23:17:12.339Z,3.03
2018-04-25T23:19:38.401Z,2.77
2018-04-25T23:22:04.293Z,3.37
2018-04-25T23:24:30.176Z,3.20
2018-04-25T23:26:56.111Z,3.30
2018-04-25T23:29:22.006Z,3.17
2018-04-25T23:31:48.020Z,3.27
2018-04-25T23:34:13.934Z,3.50
2018-04-25T23:36:39.828Z,3.37
2018-04-25T23:39:05.707Z,3.60
2018-04-25T23:41:31.650Z,3.53
2018-04-25T23:43:57.674Z,3.63
2018-04-25T23:46:23.579Z,4.10
2018-04-25T23:48:49.838Z,3.83
2018-04-25T23:51:15.740Z,4.23
2018-04-25T23:53:41.610Z,4.03
2018-04-25T23:56:07.681Z,4.40
2018-04-25T23:58:33.557Z,4.47
